Huseyn Javid — 9HLZ9 — position and weather

sailwx.info

Track history (hours):
 
Tides and Currents Weather Stations Pressure Air Temp Water Temp Dewpoint Dewpoint Depression Visibility Wind Speed Wind Dir Waves Ship Positions

Huseyn Javid

Last reported at 2017-Oct-13 18:55 UTC. Time now 2017-Oct-18 06:12 UTC.
Position N 40°39' E 028°33'.

Length 93 m; draft 5.4 m.

Type: Tanker. MMSI: 249162000.

Date/timePositionNaut miles runAvg speedWind from/ knotsBaromVisibWave heightAir tempDewpointWater temp
2017-Oct-13 18:55N 40°39' E 028°33'1 0.3
2017-Oct-13 15:12N 40°40' E 028°33'0 0.3
2017-Oct-13 14:56N 40°40' E 028°33'0 0.4
2017-Oct-13 14:28N 40°40' E 028°33'0 0.4
2017-Oct-13 13:27N 40°40' E 028°32'  
2017-Oct-10 07:06N 40°41' E 028°52'1 5.7
2017-Oct-10 06:59N 40°40' E 028°52'1 0.5
2017-Oct-10 03:53N 40°40' E 028°50'0 0.4
2017-Oct-10 03:26N 40°40' E 028°50'3 0.1
2017-Oct-09 00:11N 40°43' E 028°52'0 0.7
2017-Oct-08 23:56N 40°43' E 028°51'1 0.8
2017-Oct-08 23:16N 40°44' E 028°51'0 1.0
2017-Oct-08 22:56N 40°44' E 028°51'9 0.2
2017-Oct-07 04:49N 40°45' E 028°39'0 0.5
2017-Oct-07 04:30N 40°45' E 028°39'1 0.5
2017-Oct-07 02:56N 40°45' E 028°38'0 0.0
2017-Oct-06 16:44N 40°45' E 028°38'10 6.9
2017-Oct-06 15:22N 40°44' E 028°51'3 8.1
2017-Oct-06 14:58N 40°44' E 028°55'3 7.3
2017-Oct-06 14:30N 40°43' E 028°59'1 1.1
2017-Oct-06 14:00N 40°44' E 028°59'1 1.4
2017-Oct-06 13:30N 40°44' E 028°59'1 1.3
2017-Oct-06 12:51N 40°45' E 028°58'0 1.3
2017-Oct-06 12:30N 40°45' E 028°57'1 1.1
2017-Oct-06 11:49N 40°46' E 028°56'0 0.9
2017-Oct-06 11:29N 40°46' E 028°56'1 0.9
2017-Oct-06 10:56N 40°46' E 028°55'1 0.9
2017-Oct-06 09:41N 40°45' E 028°54'3 0.8
2017-Oct-06 05:20N 40°43' E 028°50'1 0.2
2017-Oct-06 01:32N 40°42' E 028°50'0 0.5
2017-Oct-06 01:15N 40°43' E 028°50'0 0.5
2017-Oct-06 00:52N 40°43' E 028°50'0 0.5
2017-Oct-06 00:28N 40°43' E 028°50'0 0.5
2017-Oct-05 23:41N 40°43' E 028°50'0 0.6
2017-Oct-05 23:30N 40°43' E 028°50'0 0.6
2017-Oct-05 22:57N 40°44' E 028°51'0 0.7
2017-Oct-05 22:18N 40°44' E 028°51'0 0.7
2017-Oct-05 21:48N 40°45' E 028°51'0 0.7
2017-Oct-05 21:28N 40°45' E 028°50'0 0.6
2017-Oct-05 21:00N 40°45' E 028°50'0 0.5
2017-Oct-05 20:19N 40°45' E 028°50'0 0.4
2017-Oct-05 19:46N 40°46' E 028°50'0 0.5
2017-Oct-05 19:29N 40°46' E 028°50'0 0.6
2017-Oct-05 19:00N 40°46' E 028°50'4 7.1
2017-Oct-05 18:29N 40°46' E 028°45'5 8.8
2017-Oct-05 17:52N 40°45' E 028°38'3 8.9
2017-Oct-05 17:30N 40°45' E 028°34'5 8.6
2017-Oct-05 16:53N 40°45' E 028°27'  
Track history (hours):
 
Tides and Currents Weather Stations Pressure Air Temp Water Temp Dewpoint Dewpoint Depression Visibility Wind Speed Wind Dir Waves Ship Positions

Huseyn Javid

Last reported at 2017-Oct-13 18:55 UTC. Time now 2017-Oct-18 06:12 UTC.
Position N 40°39' E 028°33'.

Length 93 m; draft 5.4 m.

Type: Tanker. MMSI: 249162000.

Date/timePositionNaut miles runAvg speedWind from/ knotsBaromVisibWave heightAir tempDewpointWater temp
2017-Oct-13 18:55N 40°39' E 028°33'1 0.3
2017-Oct-13 15:12N 40°40' E 028°33'0 0.3
2017-Oct-13 14:56N 40°40' E 028°33'0 0.4
2017-Oct-13 14:28N 40°40' E 028°33'0 0.4
2017-Oct-13 13:27N 40°40' E 028°32'  
2017-Oct-10 07:06N 40°41' E 028°52'1 5.7
2017-Oct-10 06:59N 40°40' E 028°52'1 0.5
2017-Oct-10 03:53N 40°40' E 028°50'0 0.4
2017-Oct-10 03:26N 40°40' E 028°50'3 0.1
2017-Oct-09 00:11N 40°43' E 028°52'0 0.7
2017-Oct-08 23:56N 40°43' E 028°51'1 0.8
2017-Oct-08 23:16N 40°44' E 028°51'0 1.0
2017-Oct-08 22:56N 40°44' E 028°51'9 0.2
2017-Oct-07 04:49N 40°45' E 028°39'0 0.5
2017-Oct-07 04:30N 40°45' E 028°39'1 0.5
2017-Oct-07 02:56N 40°45' E 028°38'0 0.0
2017-Oct-06 16:44N 40°45' E 028°38'10 6.9
2017-Oct-06 15:22N 40°44' E 028°51'3 8.1
2017-Oct-06 14:58N 40°44' E 028°55'3 7.3
2017-Oct-06 14:30N 40°43' E 028°59'1 1.1
2017-Oct-06 14:00N 40°44' E 028°59'1 1.4
2017-Oct-06 13:30N 40°44' E 028°59'1 1.3
2017-Oct-06 12:51N 40°45' E 028°58'0 1.3
2017-Oct-06 12:30N 40°45' E 028°57'1 1.1
2017-Oct-06 11:49N 40°46' E 028°56'0 0.9
2017-Oct-06 11:29N 40°46' E 028°56'1 0.9
2017-Oct-06 10:56N 40°46' E 028°55'1 0.9
2017-Oct-06 09:41N 40°45' E 028°54'3 0.8
2017-Oct-06 05:20N 40°43' E 028°50'1 0.2
2017-Oct-06 01:32N 40°42' E 028°50'0 0.5
2017-Oct-06 01:15N 40°43' E 028°50'0 0.5
2017-Oct-06 00:52N 40°43' E 028°50'0 0.5
2017-Oct-06 00:28N 40°43' E 028°50'0 0.5
2017-Oct-05 23:41N 40°43' E 028°50'0 0.6
2017-Oct-05 23:30N 40°43' E 028°50'0 0.6
2017-Oct-05 22:57N 40°44' E 028°51'0 0.7
2017-Oct-05 22:18N 40°44' E 028°51'0 0.7
2017-Oct-05 21:48N 40°45' E 028°51'0 0.7
2017-Oct-05 21:28N 40°45' E 028°50'0 0.6
2017-Oct-05 21:00N 40°45' E 028°50'0 0.5
2017-Oct-05 20:19N 40°45' E 028°50'0 0.4
2017-Oct-05 19:46N 40°46' E 028°50'0 0.5
2017-Oct-05 19:29N 40°46' E 028°50'0 0.6
2017-Oct-05 19:00N 40°46' E 028°50'4 7.1
2017-Oct-05 18:29N 40°46' E 028°45'5 8.8
2017-Oct-05 17:52N 40°45' E 028°38'3 8.9
2017-Oct-05 17:30N 40°45' E 028°34'5 8.6
2017-Oct-05 16:53N 40°45' E 028°27'  

Dump ship's entire track history